createdAt,value
2023-02-15T00:02:14.127Z,21.15
2023-02-15T00:04:51.078Z,20.10
2023-02-15T00:07:19.559Z,19.73
2023-02-15T00:09:47.083Z,21.05
2023-02-15T00:12:14.464Z,17.20
2023-02-15T00:14:42.966Z,19.00
2023-02-15T00:17:13.014Z,19.92
2023-02-15T00:19:40.891Z,19.70
2023-02-15T00:24:35.624Z,20.48
2023-02-15T00:27:02.973Z,21.38
2023-02-15T00:29:30.422Z,21.42
2023-02-15T00:31:57.808Z,19.92
2023-02-15T00:34:28.464Z,19.27
2023-02-15T00:36:57.881Z,21.05
2023-02-15T00:39:26.388Z,20.45
2023-02-15T00:41:53.741Z,21.52
2023-02-15T00:44:21.106Z,21.08
2023-02-15T00:46:48.847Z,21.30
2023-02-15T00:49:16.630Z,20.13
2023-02-15T00:51:45.295Z,22.25
2023-02-15T00:54:12.658Z,22.08
2023-02-15T00:56:40.020Z,21.38
2023-02-15T00:59:07.508Z,23.05
2023-02-15T01:01:34.935Z,21.83
2023-02-15T01:04:03.138Z,21.27
2023-02-15T01:06:31.556Z,23.80
2023-02-15T01:09:00.287Z,22.42
2023-02-15T01:11:27.659Z,21.33
2023-02-15T01:13:55.916Z,23.55
2023-02-15T01:16:23.740Z,23.70
2023-02-15T01:21:19.513Z,23.38
2023-02-15T01:23:47.124Z,22.05
2023-02-15T01:26:16.311Z,23.60
2023-02-15T01:28:45.492Z,22.70
2023-02-15T01:33:42.804Z,22.35
2023-02-15T01:36:11.075Z,23.08
2023-02-15T01:38:40.762Z,23.27
2023-02-15T01:41:24.729Z,22.92
2023-02-15T01:43:57.262Z,22.58
2023-02-15T01:46:28.147Z,23.83
2023-02-15T01:49:00.318Z,22.55
2023-02-15T01:51:29.538Z,23.33
2023-02-15T01:54:03.760Z,23.15
2023-02-15T01:56:33.377Z,22.85
2023-02-15T01:59:06.727Z,23.77
2023-02-15T02:01:34.210Z,22.98
2023-02-15T02:04:10.101Z,22.48
2023-02-15T02:06:38.809Z,23.05
2023-02-15T02:09:11.192Z,22.98
2023-02-15T02:11:41.814Z,24.10
2023-02-15T02:14:10.985Z,23.17
2023-02-15T02:16:44.180Z,24.55
2023-02-15T02:19:30.755Z,22.67
2023-02-15T02:22:22.967Z,23.23
2023-02-15T02:25:14.634Z,24.55
2023-02-15T02:27:48.708Z,22.20
2023-02-15T02:30:25.717Z,23.25
2023-02-15T02:33:09.674Z,22.80
2023-02-15T02:35:40.765Z,22.67
2023-02-15T02:38:10.614Z,22.05
2023-02-15T02:40:42.089Z,23.05
2023-02-15T02:43:13.268Z,21.40
2023-02-15T02:45:43.311Z,21.80
2023-02-15T02:48:17.341Z,21.27
2023-02-15T02:50:46.705Z,22.83
2023-02-15T02:53:15.435Z,22.77
2023-02-15T02:55:46.407Z,23.35
2023-02-15T02:58:18.450Z,23.70
2023-02-15T03:00:54.285Z,23.00
2023-02-15T03:03:27.242Z,21.52
2023-02-15T03:05:56.732Z,24.17
2023-02-15T03:08:29.018Z,23.23
2023-02-15T03:11:00.496Z,23.83
2023-02-15T03:13:31.222Z,23.90
2023-02-15T03:16:16.353Z,24.17
2023-02-15T03:18:53.514Z,21.58
2023-02-15T03:21:26.335Z,23.95
2023-02-15T03:24:01.875Z,24.08
2023-02-15T03:26:36.645Z,23.08
2023-02-15T03:29:05.193Z,23.27
2023-02-15T03:31:37.241Z,24.25
2023-02-15T03:34:08.459Z,24.67
2023-02-15T03:36:42.350Z,23.73
2023-02-15T03:39:12.545Z,25.23
2023-02-15T03:41:56.534Z,24.52
2023-02-15T03:44:27.161Z,23.48
2023-02-15T03:46:57.880Z,24.17
2023-02-15T03:49:29.207Z,22.90
2023-02-15T03:51:58.031Z,22.95
2023-02-15T03:54:46.855Z,24.40
2023-02-15T03:57:34.167Z,24.98
2023-02-15T04:00:24.910Z,23.63
2023-02-15T04:03:13.214Z,25.10
2023-02-15T04:05:42.856Z,23.98
2023-02-15T04:08:17.234Z,23.65
2023-02-15T04:10:56.981Z,24.98
2023-02-15T04:13:29.718Z,22.70
2023-02-15T04:16:06.396Z,23.70
2023-02-15T04:18:54.586Z,23.90
2023-02-15T04:21:41.247Z,25.00
2023-02-15T04:24:26.966Z,23.98
2023-02-15T04:26:59.555Z,22.23
2023-02-15T04:29:27.729Z,23.88
2023-02-15T04:31:56.233Z,24.30
2023-02-15T04:34:27.310Z,23.80
2023-02-15T04:36:56.107Z,24.02
2023-02-15T04:39:23.608Z,22.83
2023-02-15T04:41:51.052Z,23.38
2023-02-15T04:44:18.667Z,22.98
2023-02-15T04:46:50.102Z,24.88
2023-02-15T04:49:17.770Z,23.02
2023-02-15T04:51:45.424Z,24.65
2023-02-15T04:54:17.124Z,23.80
2023-02-15T04:56:48.524Z,22.73
2023-02-15T04:59:18.018Z,21.15
2023-02-15T05:01:45.583Z,20.70
2023-02-15T05:04:15.084Z,23.73
2023-02-15T05:06:47.484Z,22.98
2023-02-15T05:09:21.112Z,23.23
2023-02-15T05:11:49.960Z,25.98
2023-02-15T05:14:17.432Z,24.85
2023-02-15T05:16:44.865Z,23.20
2023-02-15T05:19:12.744Z,22.98
2023-02-15T05:24:34.923Z,23.02
2023-02-15T05:27:26.152Z,23.88
2023-02-15T05:29:58.927Z,24.52
2023-02-15T05:32:28.992Z,24.08
2023-02-15T05:34:58.566Z,25.58
2023-02-15T05:37:25.986Z,24.13
2023-02-15T05:39:54.779Z,25.13
2023-02-15T05:42:28.971Z,25.40
2023-02-15T05:44:58.064Z,23.25
2023-02-15T05:47:25.450Z,24.73
2023-02-15T05:49:54.705Z,26.23
2023-02-15T05:52:22.518Z,22.90
2023-02-15T05:54:52.877Z,24.85
2023-02-15T05:57:25.762Z,26.02
2023-02-15T05:59:57.567Z,26.10
2023-02-15T06:02:25.000Z,25.52
2023-02-15T06:04:52.553Z,25.13
2023-02-15T06:07:20.050Z,23.90
2023-02-15T06:09:50.203Z,25.02
2023-02-15T06:12:19.747Z,25.85
2023-02-15T06:14:47.465Z,24.73
2023-02-15T06:17:17.474Z,25.33
2023-02-15T06:19:46.419Z,24.92
2023-02-15T06:22:17.032Z,26.08
2023-02-15T06:24:44.552Z,23.98
2023-02-15T06:27:12.383Z,22.77
2023-02-15T06:32:10.772Z,23.35
2023-02-15T06:34:41.137Z,23.92
2023-02-15T06:37:09.483Z,24.23
2023-02-15T06:39:38.406Z,26.88
2023-02-15T06:42:05.821Z,24.55
2023-02-15T06:44:38.598Z,23.65
2023-02-15T06:47:08.108Z,24.65
2023-02-15T06:49:36.660Z,23.70
2023-02-15T06:52:08.047Z,22.00
2023-02-15T06:54:37.077Z,22.73
2023-02-15T06:57:04.441Z,23.63
2023-02-15T06:59:33.448Z,25.05
2023-02-15T07:02:03.653Z,24.67
2023-02-15T07:04:31.544Z,23.08
2023-02-15T07:09:27.707Z,22.83
2023-02-15T07:12:12.815Z,22.25
2023-02-15T07:14:41.439Z,23.48
2023-02-15T07:17:27.490Z,21.88
2023-02-15T07:20:00.881Z,22.80
2023-02-15T07:22:30.897Z,23.38
2023-02-15T07:25:04.012Z,24.98
2023-02-15T07:27:32.262Z,23.98
2023-02-15T07:29:59.726Z,22.55
2023-02-15T07:32:29.003Z,23.30
2023-02-15T07:34:57.079Z,23.42
2023-02-15T07:37:25.667Z,24.88
2023-02-15T07:39:53.251Z,23.05
2023-02-15T07:42:22.841Z,22.30
2023-02-15T07:44:56.166Z,24.00
2023-02-15T07:47:24.525Z,22.33
2023-02-15T07:49:52.036Z,24.98
2023-02-15T07:52:21.831Z,24.90
2023-02-15T07:54:51.826Z,25.95
2023-02-15T07:57:19.352Z,26.60
2023-02-15T07:59:51.094Z,26.33
2023-02-15T08:02:19.115Z,23.98
2023-02-15T08:04:49.242Z,25.33
2023-02-15T08:07:18.473Z,25.25
2023-02-15T08:09:45.971Z,25.30
2023-02-15T08:12:13.352Z,26.50
2023-02-15T08:14:41.009Z,26.17
2023-02-15T08:19:37.294Z,26.70
2023-02-15T08:22:09.819Z,29.90
2023-02-15T08:24:38.815Z,24.88
2023-02-15T08:27:06.939Z,26.33
2023-02-15T08:32:03.881Z,25.98
2023-02-15T08:34:35.138Z,26.45
2023-02-15T08:37:04.282Z,27.23
2023-02-15T08:39:34.795Z,25.50
2023-02-15T08:42:03.896Z,26.50
2023-02-15T08:44:31.593Z,26.92
2023-02-15T08:47:03.674Z,27.80
2023-02-15T08:49:33.228Z,35.10
2023-02-15T08:52:01.024Z,28.58
2023-02-15T08:54:32.098Z,28.65
2023-02-15T08:57:00.979Z,26.98
2023-02-15T08:59:28.403Z,28.67
2023-02-15T09:01:56.190Z,27.55
2023-02-15T09:06:51.692Z,27.85
2023-02-15T09:09:19.753Z,28.17
2023-02-15T09:11:50.014Z,28.38
2023-02-15T09:14:20.988Z,30.25
2023-02-15T09:16:51.983Z,28.90
2023-02-15T09:19:21.302Z,30.83
2023-02-15T09:21:49.304Z,28.73
2023-02-15T09:26:45.811Z,28.98
2023-02-15T09:29:17.630Z,29.02
2023-02-15T09:31:48.188Z,29.40
2023-02-15T09:34:17.244Z,28.55
2023-02-15T09:36:48.918Z,28.80
2023-02-15T09:39:19.965Z,29.92
2023-02-15T09:42:14.378Z,27.52
2023-02-15T09:44:55.155Z,26.58
2023-02-15T09:47:34.926Z,26.63
2023-02-15T09:50:06.312Z,25.60
2023-02-15T09:52:40.755Z,25.42
2023-02-15T09:55:17.900Z,25.55
2023-02-15T09:57:49.033Z,24.80
2023-02-15T10:00:27.732Z,24.98
2023-02-15T10:03:07.141Z,25.20
2023-02-15T10:05:45.840Z,23.83
2023-02-15T10:08:37.065Z,22.83
2023-02-15T10:11:26.312Z,23.65
2023-02-15T10:14:03.916Z,22.10
2023-02-15T10:16:38.753Z,23.48
2023-02-15T10:19:14.417Z,23.77
2023-02-15T10:21:48.508Z,22.73
2023-02-15T10:24:40.541Z,22.20
2023-02-15T10:27:13.055Z,26.50
2023-02-15T10:29:41.160Z,24.85
2023-02-15T10:32:20.218Z,25.17
2023-02-15T10:34:52.518Z,23.75
2023-02-15T10:37:33.874Z,23.10
2023-02-15T10:40:16.038Z,23.42
2023-02-15T10:42:52.242Z,23.15
2023-02-15T10:45:24.842Z,21.65
2023-02-15T10:48:08.511Z,21.95
2023-02-15T10:50:44.335Z,21.70
2023-02-15T10:53:22.789Z,20.40
2023-02-15T10:55:57.809Z,20.25
2023-02-15T10:58:31.832Z,22.60
2023-02-15T11:01:06.284Z,18.05
2023-02-15T11:03:41.740Z,17.63
2023-02-15T11:06:13.257Z,16.35
2023-02-15T11:08:42.593Z,17.20
2023-02-15T11:11:11.457Z,16.58
2023-02-15T11:13:47.297Z,16.00
2023-02-15T11:16:19.228Z,16.17
2023-02-15T11:18:53.406Z,17.02
2023-02-15T11:21:22.682Z,15.88
2023-02-15T11:23:55.621Z,14.73
2023-02-15T11:26:26.589Z,14.70
2023-02-15T11:28:58.698Z,16.75
2023-02-15T11:31:30.334Z,15.38
2023-02-15T11:34:03.820Z,16.60
2023-02-15T11:36:34.531Z,14.45
2023-02-15T11:39:09.401Z,13.75
2023-02-15T11:41:40.737Z,18.83
2023-02-15T11:44:10.499Z,18.60
2023-02-15T11:46:42.083Z,18.50
2023-02-15T11:49:22.612Z,19.73
2023-02-15T11:51:54.074Z,18.45
2023-02-15T11:54:26.275Z,19.40
2023-02-15T11:56:55.641Z,17.88
2023-02-15T11:59:28.198Z,16.85
2023-02-15T12:01:55.759Z,16.90
2023-02-15T12:04:26.736Z,17.33
2023-02-15T12:07:02.761Z,18.73
2023-02-15T12:09:35.256Z,18.15
2023-02-15T12:12:22.794Z,17.95
2023-02-15T12:17:18.030Z,15.45
2023-02-15T12:19:53.532Z,15.77
2023-02-15T12:22:28.587Z,12.98
2023-02-15T12:32:26.193Z,11.68
2023-02-15T12:34:59.357Z,12.18
2023-02-15T12:37:35.529Z,11.98
2023-02-15T12:40:05.195Z,12.90
2023-02-15T12:42:45.642Z,11.55
2023-02-15T12:45:26.233Z,12.15
2023-02-15T12:48:11.264Z,12.25
2023-02-15T12:50:41.379Z,11.65
2023-02-15T12:53:12.539Z,12.32
2023-02-15T12:55:45.415Z,11.80
2023-02-15T12:58:19.020Z,11.20
2023-02-15T13:00:46.665Z,11.50
2023-02-15T13:03:22.232Z,10.27
2023-02-15T13:05:54.892Z,10.20
2023-02-15T13:08:26.034Z,10.77
2023-02-15T13:10:57.732Z,10.15
2023-02-15T13:13:29.923Z,10.85
2023-02-15T13:16:00.081Z,10.07
2023-02-15T13:18:33.791Z,9.75
2023-02-15T13:21:15.487Z,9.43
2023-02-15T13:23:52.227Z,9.82
2023-02-15T13:26:21.243Z,9.70
2023-02-15T13:28:51.240Z,9.82
2023-02-15T13:31:23.499Z,8.90
2023-02-15T13:33:57.648Z,9.07
2023-02-15T13:36:36.054Z,9.07
2023-02-15T13:39:09.289Z,9.10
2023-02-15T13:41:42.776Z,9.35
2023-02-15T13:44:14.530Z,9.43
2023-02-15T13:46:51.527Z,9.52
2023-02-15T13:49:21.842Z,9.73
2023-02-15T13:51:57.259Z,10.13
2023-02-15T13:54:35.215Z,10.73
2023-02-15T13:57:10.642Z,9.10
2023-02-15T13:59:54.586Z,10.93
2023-02-15T14:02:50.484Z,10.50
2023-02-15T14:05:32.999Z,9.95
2023-02-15T14:08:08.617Z,10.57
2023-02-15T14:10:53.996Z,9.60
2023-02-15T14:13:36.295Z,10.10
2023-02-15T14:16:07.223Z,9.98
2023-02-15T14:18:38.037Z,9.88
2023-02-15T14:21:14.580Z,9.65
2023-02-15T14:23:48.306Z,9.13
2023-02-15T14:26:18.433Z,10.40
2023-02-15T14:29:05.660Z,9.50
2023-02-15T14:31:39.715Z,10.45
2023-02-15T14:34:09.989Z,10.18
2023-02-15T14:36:37.942Z,10.10
2023-02-15T14:39:33.589Z,10.80
2023-02-15T14:42:05.482Z,11.15
2023-02-15T14:44:37.687Z,10.13
2023-02-15T14:47:07.645Z,11.23
2023-02-15T14:49:40.899Z,10.90
2023-02-15T14:52:11.658Z,10.48
2023-02-15T14:55:01.746Z,11.75
2023-02-15T14:57:35.386Z,10.88
2023-02-15T15:00:14.693Z,10.85
2023-02-15T15:02:52.766Z,10.55
2023-02-15T15:05:31.214Z,11.77
2023-02-15T15:08:02.216Z,11.00
2023-02-15T15:10:42.141Z,10.75
2023-02-15T15:13:39.668Z,12.48
2023-02-15T15:16:25.832Z,12.30
2023-02-15T15:18:57.249Z,12.80
2023-02-15T15:21:45.816Z,13.00
2023-02-15T15:24:47.992Z,12.23
2023-02-15T15:27:34.181Z,11.48
2023-02-15T15:30:25.485Z,12.43
2023-02-15T15:32:57.654Z,12.13
2023-02-15T15:35:29.402Z,11.38
2023-02-15T15:38:06.514Z,10.80
2023-02-15T15:40:57.269Z,11.60
2023-02-15T15:43:41.600Z,10.63
2023-02-15T15:46:33.172Z,11.48
2023-02-15T15:49:14.740Z,11.80
2023-02-15T15:51:47.630Z,10.57
2023-02-15T15:54:17.295Z,11.25
2023-02-15T15:56:57.032Z,11.32
2023-02-15T15:59:43.184Z,9.98
2023-02-15T16:02:17.830Z,11.73
2023-02-15T16:04:46.926Z,10.63
2023-02-15T16:07:38.433Z,10.45
2023-02-15T16:10:06.865Z,10.85
2023-02-15T16:12:40.697Z,10.98
2023-02-15T16:15:16.286Z,11.50
2023-02-15T16:17:51.847Z,11.57
2023-02-15T16:20:22.678Z,10.48
2023-02-15T16:22:54.661Z,11.27
2023-02-15T16:25:31.715Z,11.73
2023-02-15T16:27:59.250Z,11.03
2023-02-15T16:30:34.377Z,10.50
2023-02-15T16:33:10.772Z,11.52
2023-02-15T16:35:42.653Z,13.57
2023-02-15T16:38:14.557Z,13.75
2023-02-15T16:40:53.551Z,13.45
2023-02-15T16:43:23.688Z,12.65
2023-02-15T16:45:51.274Z,12.98
2023-02-15T16:48:22.045Z,12.82
2023-02-15T16:50:51.051Z,14.45
2023-02-15T16:53:21.170Z,13.85
2023-02-15T16:55:51.474Z,13.13
2023-02-15T16:58:25.481Z,14.35
2023-02-15T17:00:54.406Z,15.70
2023-02-15T17:03:27.751Z,16.35
2023-02-15T17:05:56.514Z,13.80
2023-02-15T17:08:30.914Z,14.10
2023-02-15T17:11:13.436Z,14.93
2023-02-15T17:13:41.127Z,13.95
2023-02-15T17:16:29.388Z,14.38
2023-02-15T17:18:59.505Z,15.63
2023-02-15T17:21:32.560Z,13.93
2023-02-15T17:24:03.542Z,15.80
2023-02-15T17:26:32.366Z,14.18
2023-02-15T17:29:02.967Z,15.80
2023-02-15T17:31:33.230Z,14.98
2023-02-15T17:34:06.682Z,15.48
2023-02-15T17:36:34.022Z,15.23
2023-02-15T17:39:03.195Z,14.63
2023-02-15T17:41:33.603Z,16.00
2023-02-15T17:44:00.974Z,16.23
2023-02-15T17:46:32.840Z,16.00
2023-02-15T17:49:02.072Z,16.05
2023-02-15T17:51:29.559Z,19.92
2023-02-15T17:54:14.828Z,23.95
2023-02-15T17:56:42.227Z,18.83
2023-02-15T17:59:14.296Z,17.38
2023-02-15T18:02:04.352Z,17.88
2023-02-15T18:04:51.404Z,18.50
2023-02-15T18:07:37.115Z,17.88
2023-02-15T18:10:22.813Z,17.42
2023-02-15T18:12:51.989Z,17.17
2023-02-15T18:15:19.452Z,17.48
2023-02-15T18:17:48.989Z,16.75
2023-02-15T18:20:20.007Z,19.48
2023-02-15T18:22:47.802Z,23.40
2023-02-15T18:25:18.920Z,32.55
2023-02-15T18:27:46.403Z,26.77
2023-02-15T18:30:15.267Z,29.75
2023-02-15T18:32:43.116Z,27.50
2023-02-15T18:35:14.967Z,28.38
2023-02-15T18:37:46.501Z,26.88
2023-02-15T18:40:18.171Z,28.38
2023-02-15T18:42:47.805Z,27.65
2023-02-15T18:45:19.223Z,27.33
2023-02-15T18:47:47.112Z,26.15
2023-02-15T18:57:52.102Z,21.27
2023-02-15T19:00:31.729Z,17.60
2023-02-15T19:02:59.905Z,18.40
2023-02-15T19:05:28.435Z,18.73
2023-02-15T19:07:56.244Z,17.95
2023-02-15T19:10:26.138Z,17.65
2023-02-15T19:13:11.929Z,16.08
2023-02-15T19:15:39.591Z,16.88
2023-02-15T19:18:10.178Z,19.48
2023-02-15T19:20:40.448Z,16.33
2023-02-15T19:23:09.067Z,18.25
2023-02-15T19:25:38.957Z,17.08
2023-02-15T19:28:10.927Z,17.48
2023-02-15T19:30:40.764Z,18.10
2023-02-15T19:33:18.922Z,16.67
2023-02-15T19:35:47.652Z,17.50
2023-02-15T19:38:18.318Z,17.83
2023-02-15T19:40:48.751Z,18.52
2023-02-15T19:43:26.423Z,17.48
2023-02-15T19:45:54.137Z,17.40
2023-02-15T19:48:23.893Z,16.85
2023-02-15T19:50:52.626Z,17.80
2023-02-15T19:53:23.974Z,18.30
2023-02-15T19:55:54.996Z,17.48
2023-02-15T19:58:23.968Z,17.73
2023-02-15T20:00:56.714Z,18.92
2023-02-15T20:03:24.384Z,18.20
2023-02-15T20:05:57.082Z,18.55
2023-02-15T20:08:27.245Z,17.85
2023-02-15T20:10:57.367Z,18.73
2023-02-15T20:13:31.397Z,18.85
2023-02-15T20:16:06.226Z,18.58
2023-02-15T20:18:36.389Z,18.40
2023-02-15T20:21:05.635Z,18.73
2023-02-15T20:23:35.589Z,19.23
2023-02-15T20:26:08.114Z,18.83
2023-02-15T20:28:36.958Z,19.40
2023-02-15T20:31:04.830Z,19.92
2023-02-15T20:36:03.914Z,18.33
2023-02-15T20:38:34.531Z,19.15
2023-02-15T20:41:19.468Z,18.00
2023-02-15T20:43:48.742Z,19.40
2023-02-15T20:46:16.303Z,19.20
2023-02-15T20:48:43.674Z,19.80
2023-02-15T20:51:18.985Z,19.13
2023-02-15T20:53:46.714Z,19.45
2023-02-15T20:56:19.979Z,18.65
2023-02-15T20:58:51.229Z,20.63
2023-02-15T21:01:20.634Z,21.08
2023-02-15T21:03:50.400Z,19.30
2023-02-15T21:06:20.242Z,19.67
2023-02-15T21:08:50.607Z,17.75
2023-02-15T21:11:20.039Z,19.27
2023-02-15T21:13:49.570Z,19.17
2023-02-15T21:16:20.230Z,19.90
2023-02-15T21:18:52.083Z,20.17
2023-02-15T21:21:23.418Z,20.83
2023-02-15T21:23:52.335Z,20.15
2023-02-15T21:26:24.550Z,19.48
2023-02-15T21:28:57.360Z,19.83
2023-02-15T21:31:27.231Z,19.63
2023-02-15T21:33:56.995Z,21.17
2023-02-15T21:36:26.710Z,18.80
2023-02-15T21:38:56.463Z,21.17
2023-02-15T21:41:46.029Z,19.38
2023-02-15T21:44:42.640Z,19.63
2023-02-15T21:47:35.587Z,20.67
2023-02-15T21:50:29.617Z,20.90
2023-02-15T21:53:02.274Z,20.53
2023-02-15T21:55:37.269Z,22.13
2023-02-15T21:58:06.155Z,21.05
2023-02-15T22:00:41.557Z,21.35
2023-02-15T22:03:09.038Z,21.38
2023-02-15T22:05:39.230Z,22.45
2023-02-15T22:08:14.400Z,21.27
2023-02-15T22:10:42.441Z,21.58
2023-02-15T22:15:52.583Z,20.92
2023-02-15T22:18:23.911Z,21.85
2023-02-15T22:20:54.773Z,20.35
2023-02-15T22:23:22.818Z,21.80
2023-02-15T22:25:54.565Z,22.52
2023-02-15T22:28:24.042Z,24.23
2023-02-15T22:30:57.997Z,23.83
2023-02-15T22:33:28.602Z,22.67
2023-02-15T22:35:58.277Z,22.13
2023-02-15T22:38:31.549Z,24.02
2023-02-15T22:41:07.121Z,23.90
2023-02-15T22:43:37.881Z,22.02
2023-02-15T22:46:07.964Z,23.48
2023-02-15T22:48:35.871Z,24.35
2023-02-15T22:51:03.642Z,22.17
2023-02-15T22:53:33.194Z,22.40
2023-02-15T22:56:05.876Z,23.02
2023-02-15T22:58:35.121Z,23.67
2023-02-15T23:01:04.771Z,22.05
2023-02-15T23:03:34.297Z,22.33
2023-02-15T23:06:01.931Z,23.98
2023-02-15T23:08:29.365Z,22.90
2023-02-15T23:10:59.077Z,23.25
2023-02-15T23:13:28.756Z,22.73
2023-02-15T23:15:57.233Z,23.63
2023-02-15T23:18:33.332Z,22.95
2023-02-15T23:21:06.251Z,22.73
2023-02-15T23:23:34.764Z,23.70
2023-02-15T23:26:04.353Z,24.27
2023-02-15T23:28:38.408Z,22.27
2023-02-15T23:31:11.652Z,20.20
2023-02-15T23:33:39.219Z,20.92
2023-02-15T23:36:17.147Z,23.02
2023-02-15T23:39:27.564Z,23.77
2023-02-15T23:41:54.918Z,23.83
2023-02-15T23:44:22.554Z,21.95
2023-02-15T23:46:50.598Z,23.83
2023-02-15T23:49:19.240Z,22.33
2023-02-15T23:51:48.678Z,24.30
2023-02-15T23:54:16.852Z,22.63
2023-02-15T23:56:45.255Z,22.55
2023-02-15T23:59:16.199Z,23.95
